createdAt,value
2022-09-26T00:01:22.468Z,9.93
2022-09-26T00:03:52.698Z,9.88
2022-09-26T00:06:20.517Z,9.98
2022-09-26T00:08:48.463Z,9.96
2022-09-26T00:11:20.003Z,9.89
2022-09-26T00:13:47.262Z,9.87
2022-09-26T00:16:15.217Z,9.89
2022-09-26T00:18:41.871Z,9.82
2022-09-26T00:21:12.407Z,9.84
2022-09-26T00:23:40.269Z,9.85
2022-09-26T00:26:06.972Z,9.84
2022-09-26T00:28:34.281Z,9.65
2022-09-26T00:31:22.489Z,9.57
2022-09-26T00:33:49.285Z,9.46
2022-09-26T00:36:16.479Z,9.47
2022-09-26T00:38:43.129Z,9.51
2022-09-26T00:41:10.636Z,9.49
2022-09-26T00:43:57.249Z,9.58
2022-09-26T00:46:38.073Z,9.36
2022-09-26T00:49:31.176Z,9.42
2022-09-26T00:52:04.165Z,9.47
2022-09-26T00:54:31.679Z,9.40
2022-09-26T00:57:14.114Z,9.26
2022-09-26T00:59:46.545Z,9.25
2022-09-26T01:02:13.687Z,9.42
2022-09-26T01:04:42.443Z,9.31
2022-09-26T01:07:16.992Z,9.47
2022-09-26T01:09:43.773Z,9.49
2022-09-26T01:12:11.202Z,9.56
2022-09-26T01:14:40.277Z,9.36
2022-09-26T01:17:08.392Z,9.30
2022-09-26T01:20:19.356Z,9.17
2022-09-26T01:22:55.950Z,9.27
2022-09-26T01:25:41.238Z,9.31
2022-09-26T01:28:10.885Z,9.15
2022-09-26T01:31:01.349Z,9.23
2022-09-26T01:33:35.520Z,9.28
2022-09-26T01:36:04.850Z,9.26
2022-09-26T01:39:02.178Z,9.28
2022-09-26T01:41:55.364Z,9.31
2022-09-26T01:44:48.738Z,9.24
2022-09-26T01:47:23.897Z,9.19
2022-09-26T01:50:00.225Z,9.13
2022-09-26T01:52:39.422Z,9.10
2022-09-26T01:55:24.677Z,9.10
2022-09-26T01:58:02.453Z,9.30
2022-09-26T02:00:30.436Z,9.35
2022-09-26T02:02:59.651Z,9.30
2022-09-26T02:05:35.805Z,9.11
2022-09-26T02:08:10.076Z,9.12
2022-09-26T02:10:43.431Z,9.23
2022-09-26T02:13:16.028Z,9.28
2022-09-26T02:15:47.492Z,9.29
2022-09-26T02:18:23.514Z,9.32
2022-09-26T02:20:59.236Z,9.38
2022-09-26T02:23:25.872Z,9.44
2022-09-26T02:25:52.488Z,9.34
2022-09-26T02:28:19.097Z,9.23
2022-09-26T02:30:47.377Z,9.24
2022-09-26T02:33:14.537Z,9.32
2022-09-26T02:35:54.382Z,9.40
2022-09-26T02:38:23.117Z,9.47
2022-09-26T02:41:08.378Z,9.32
2022-09-26T02:43:41.726Z,9.25
2022-09-26T02:46:24.214Z,9.10
2022-09-26T02:49:14.078Z,9.31
2022-09-26T02:52:22.811Z,9.33
2022-09-26T02:55:05.322Z,9.40
2022-09-26T02:57:47.549Z,9.40
2022-09-26T03:00:21.004Z,9.45
2022-09-26T03:02:59.402Z,9.36
2022-09-26T03:05:29.529Z,9.46
2022-09-26T03:08:17.607Z,9.50
2022-09-26T03:10:45.451Z,9.56
2022-09-26T03:13:14.820Z,9.56
2022-09-26T03:15:46.004Z,9.55
2022-09-26T03:18:18.421Z,8.97
2022-09-26T03:20:45.289Z,8.96
2022-09-26T03:23:12.033Z,9.10
2022-09-26T03:25:39.397Z,9.24
2022-09-26T03:28:06.043Z,9.26
2022-09-26T03:30:33.465Z,9.12
2022-09-26T03:33:00.035Z,9.16
2022-09-26T03:35:26.640Z,9.06
2022-09-26T03:37:53.335Z,9.07
2022-09-26T03:40:19.984Z,9.12
2022-09-26T03:42:48.038Z,9.23
2022-09-26T03:45:14.769Z,9.21
2022-09-26T03:47:41.950Z,9.20
2022-09-26T03:50:09.379Z,9.18
2022-09-26T03:52:36.635Z,9.25
2022-09-26T03:55:04.583Z,9.37
2022-09-26T03:57:32.325Z,9.27
2022-09-26T03:59:58.980Z,9.43
2022-09-26T04:02:25.638Z,9.52
2022-09-26T04:04:52.277Z,9.58
2022-09-26T04:07:18.877Z,9.62
2022-09-26T04:09:45.490Z,9.62
2022-09-26T04:12:12.066Z,9.35
2022-09-26T04:14:38.681Z,9.29
2022-09-26T04:17:05.348Z,9.26
2022-09-26T04:19:31.986Z,9.43
2022-09-26T04:21:58.947Z,9.28
2022-09-26T04:24:25.865Z,9.29
2022-09-26T04:26:52.501Z,9.27
2022-09-26T04:29:19.266Z,8.97
2022-09-26T04:31:46.324Z,8.89
2022-09-26T04:34:13.118Z,9.06
2022-09-26T04:36:39.770Z,9.16
2022-09-26T04:39:06.552Z,9.19
2022-09-26T04:41:33.423Z,9.14
2022-09-26T04:44:01.876Z,9.28
2022-09-26T04:46:31.064Z,9.25
2022-09-26T04:48:59.942Z,9.22
2022-09-26T04:51:28.370Z,9.28
2022-09-26T04:53:55.650Z,9.23
2022-09-26T04:56:24.388Z,9.26
2022-09-26T04:58:51.822Z,9.34
2022-09-26T05:01:20.745Z,9.35
2022-09-26T05:03:47.918Z,9.35
2022-09-26T05:06:16.247Z,9.12
2022-09-26T05:08:46.385Z,8.92
2022-09-26T05:11:15.523Z,9.23
2022-09-26T05:13:42.463Z,9.29
2022-09-26T05:16:11.544Z,9.35
2022-09-26T05:18:39.154Z,9.23
2022-09-26T05:21:07.433Z,9.27
2022-09-26T05:23:53.392Z,9.25
2022-09-26T05:26:59.765Z,9.29
2022-09-26T05:29:26.591Z,9.12
2022-09-26T05:31:54.201Z,8.77
2022-09-26T05:34:20.859Z,8.72
2022-09-26T05:36:47.799Z,9.03
2022-09-26T05:39:32.918Z,9.04
2022-09-26T05:41:59.811Z,9.17
2022-09-26T05:44:27.365Z,9.13
2022-09-26T05:46:55.068Z,8.84
2022-09-26T05:49:21.873Z,8.78
2022-09-26T05:51:48.559Z,8.66
2022-09-26T05:54:15.368Z,8.49
2022-09-26T05:56:42.355Z,8.68
2022-09-26T05:59:09.116Z,8.62
2022-09-26T06:01:35.963Z,8.44
2022-09-26T06:04:03.041Z,8.59
2022-09-26T06:06:32.746Z,8.64
2022-09-26T06:08:59.971Z,8.50
2022-09-26T06:11:31.031Z,8.56
2022-09-26T06:14:00.714Z,8.63
2022-09-26T06:16:28.335Z,8.47
2022-09-26T06:18:55.744Z,8.82
2022-09-26T06:21:23.228Z,8.91
2022-09-26T06:23:50.171Z,9.28
2022-09-26T06:26:22.062Z,9.45
2022-09-26T06:28:51.451Z,9.71
2022-09-26T06:31:19.077Z,9.96
2022-09-26T06:33:53.708Z,9.91
2022-09-26T06:36:21.893Z,9.02
2022-09-26T06:38:48.897Z,8.96
2022-09-26T06:41:16.383Z,8.44
2022-09-26T06:43:45.249Z,8.23
2022-09-26T06:46:13.867Z,8.02
2022-09-26T06:48:41.013Z,8.25
2022-09-26T06:51:08.824Z,8.38
2022-09-26T06:53:35.433Z,8.37
2022-09-26T06:56:02.279Z,8.68
2022-09-26T06:58:29.479Z,8.34
2022-09-26T07:00:56.637Z,8.28
2022-09-26T07:03:25.235Z,8.80
2022-09-26T07:05:54.461Z,8.97
2022-09-26T07:08:32.365Z,8.53
2022-09-26T07:11:31.281Z,8.91
2022-09-26T07:13:54.262Z,8.45
2022-09-26T07:16:21.599Z,8.96
2022-09-26T07:18:48.237Z,9.74
2022-09-26T07:21:14.862Z,12.26
2022-09-26T07:23:41.431Z,15.84
2022-09-26T07:26:08.052Z,17.92
2022-09-26T07:28:34.822Z,18.85
2022-09-26T07:31:01.638Z,17.64
2022-09-26T07:33:28.293Z,19.41
2022-09-26T07:35:55.639Z,19.32
2022-09-26T07:38:22.346Z,19.54
2022-09-26T07:40:54.395Z,21.87
2022-09-26T07:43:35.602Z,23.88
2022-09-26T07:46:26.853Z,23.27
2022-09-26T07:49:12.535Z,22.61
2022-09-26T07:51:39.135Z,22.07
2022-09-26T07:54:06.424Z,22.16
2022-09-26T07:56:34.415Z,23.35
2022-09-26T07:59:05.195Z,25.05
2022-09-26T08:01:32.064Z,26.21
2022-09-26T08:03:58.945Z,25.35
2022-09-26T08:06:25.857Z,24.47
2022-09-26T08:08:53.982Z,26.93
2022-09-26T08:11:20.836Z,27.91
2022-09-26T08:13:48.613Z,28.63
2022-09-26T08:16:23.092Z,25.94
2022-09-26T08:18:51.372Z,27.38
2022-09-26T08:21:18.898Z,27.92
2022-09-26T08:23:46.894Z,28.10
2022-09-26T08:26:14.045Z,28.18
2022-09-26T08:28:40.992Z,26.77
2022-09-26T08:31:08.236Z,27.03
2022-09-26T08:33:37.171Z,25.42
2022-09-26T08:36:09.275Z,23.71
2022-09-26T08:38:37.775Z,27.58
2022-09-26T08:41:24.427Z,25.71
2022-09-26T08:44:06.150Z,27.75
2022-09-26T08:46:56.876Z,22.39
2022-09-26T08:49:36.914Z,24.54
2022-09-26T08:52:12.150Z,24.76
2022-09-26T08:54:43.309Z,23.30
2022-09-26T08:57:26.681Z,23.61
2022-09-26T08:59:54.462Z,25.64
2022-09-26T09:02:44.490Z,22.38
2022-09-26T09:05:23.332Z,22.06
2022-09-26T09:07:53.312Z,23.46
2022-09-26T09:10:45.355Z,25.55
2022-09-26T09:13:33.835Z,25.25
2022-09-26T09:16:13.469Z,22.50
2022-09-26T09:19:08.524Z,19.73
2022-09-26T09:21:42.146Z,19.60
2022-09-26T09:24:36.204Z,19.32
2022-09-26T09:30:51.594Z,24.68
2022-09-26T09:33:26.123Z,24.27
2022-09-26T09:35:57.908Z,23.77
2022-09-26T09:38:30.313Z,22.78
2022-09-26T09:40:59.882Z,22.80
2022-09-26T09:43:43.792Z,22.71
2022-09-26T09:46:29.187Z,21.66
2022-09-26T09:49:20.758Z,19.65
2022-09-26T09:52:29.139Z,22.01
2022-09-26T09:55:37.648Z,24.56
2022-09-26T09:58:17.222Z,23.80
2022-09-26T10:00:54.408Z,21.44
2022-09-26T10:03:53.163Z,21.98
2022-09-26T10:06:45.343Z,22.61
2022-09-26T10:09:38.804Z,23.79
2022-09-26T10:12:20.976Z,21.36
2022-09-26T10:14:51.820Z,21.87
2022-09-26T10:17:20.598Z,19.30
2022-09-26T10:19:47.647Z,19.28
2022-09-26T10:22:17.161Z,21.26
2022-09-26T10:24:47.195Z,23.25
2022-09-26T10:27:18.324Z,24.00
2022-09-26T10:29:45.675Z,23.11
2022-09-26T10:32:12.714Z,21.45
2022-09-26T10:34:40.222Z,18.76
2022-09-26T10:37:24.233Z,20.17
2022-09-26T10:40:14.742Z,20.12
2022-09-26T10:42:43.162Z,21.68
2022-09-26T10:45:15.980Z,23.88
2022-09-26T10:47:47.080Z,24.18
2022-09-26T10:50:18.157Z,20.37
2022-09-26T10:52:56.273Z,19.68
2022-09-26T10:55:32.430Z,18.23
2022-09-26T10:58:08.866Z,18.03
2022-09-26T11:00:42.199Z,17.13
2022-09-26T11:03:22.078Z,17.06
2022-09-26T11:05:57.669Z,16.70
2022-09-26T11:08:30.326Z,17.44
2022-09-26T11:11:04.173Z,17.71
2022-09-26T11:13:39.985Z,17.39
2022-09-26T11:16:13.414Z,17.90
2022-09-26T11:18:46.574Z,18.84
2022-09-26T11:21:42.048Z,18.56
2022-09-26T11:24:42.810Z,18.17
2022-09-26T11:27:22.355Z,18.30
2022-09-26T11:30:12.550Z,18.25
2022-09-26T11:32:42.996Z,17.33
2022-09-26T11:35:33.310Z,16.96
2022-09-26T11:38:26.716Z,17.16
2022-09-26T11:41:39.413Z,17.75
2022-09-26T11:44:20.959Z,17.12
2022-09-26T11:47:15.198Z,17.44
2022-09-26T11:50:08.011Z,17.89
2022-09-26T11:53:04.586Z,18.47
2022-09-26T11:55:51.251Z,17.61
2022-09-26T11:58:44.564Z,17.72
2022-09-26T12:01:30.518Z,16.62
2022-09-26T12:04:03.037Z,17.10
2022-09-26T12:06:41.670Z,16.83
2022-09-26T12:09:36.300Z,15.94
2022-09-26T12:12:20.835Z,15.49
2022-09-26T12:15:15.055Z,15.45
2022-09-26T12:17:59.458Z,15.28
2022-09-26T12:21:09.259Z,15.48
2022-09-26T12:23:35.837Z,15.42
2022-09-26T12:26:58.290Z,15.27
2022-09-26T12:29:53.770Z,15.04
2022-09-26T12:32:29.681Z,15.23
2022-09-26T12:35:32.838Z,14.88
2022-09-26T12:38:17.532Z,14.85
2022-09-26T12:40:56.229Z,15.55
2022-09-26T12:43:34.783Z,15.62
2022-09-26T12:46:09.907Z,15.75
2022-09-26T12:49:07.623Z,15.06
2022-09-26T12:51:48.482Z,14.77
2022-09-26T12:54:45.802Z,15.96
2022-09-26T12:57:17.187Z,15.73
2022-09-26T13:00:17.189Z,16.00
2022-09-26T13:03:07.796Z,15.42
2022-09-26T13:05:52.409Z,15.00
2022-09-26T13:08:43.941Z,15.15
2022-09-26T13:11:29.219Z,15.12
2022-09-26T13:14:16.768Z,15.19
2022-09-26T13:17:19.326Z,15.28
2022-09-26T13:20:13.522Z,15.62
2022-09-26T13:22:52.492Z,15.69
2022-09-26T13:25:26.105Z,15.28
2022-09-26T13:28:09.634Z,15.36
2022-09-26T13:30:40.441Z,15.88
2022-09-26T13:33:21.136Z,15.88
2022-09-26T13:35:51.530Z,16.09
2022-09-26T13:38:56.312Z,16.06
2022-09-26T13:41:44.658Z,16.10
2022-09-26T13:44:39.161Z,15.41
2022-09-26T13:47:08.458Z,15.18
2022-09-26T13:49:54.299Z,15.29
2022-09-26T13:52:34.190Z,15.04
2022-09-26T13:55:11.513Z,15.41
2022-09-26T13:57:46.728Z,14.73
2022-09-26T14:00:26.473Z,14.90
2022-09-26T14:03:13.715Z,14.38
2022-09-26T14:05:52.517Z,14.28
2022-09-26T14:08:43.538Z,14.35
2022-09-26T14:11:19.091Z,14.33
2022-09-26T14:13:47.520Z,14.56
2022-09-26T14:16:36.112Z,14.69
2022-09-26T14:19:11.026Z,14.77
2022-09-26T14:21:58.852Z,14.60
2022-09-26T14:37:30.714Z,14.28
2022-09-26T14:39:57.260Z,14.45
2022-09-26T14:42:46.719Z,14.43
2022-09-26T14:45:16.645Z,14.18
2022-09-26T14:47:55.055Z,14.65
2022-09-26T14:50:28.590Z,14.29
2022-09-26T14:53:03.174Z,13.76
2022-09-26T14:55:31.225Z,13.48
2022-09-26T14:58:17.427Z,13.75
2022-09-26T15:00:48.472Z,13.75
2022-09-26T15:03:19.378Z,13.83
2022-09-26T15:05:47.526Z,13.70
2022-09-26T15:08:24.519Z,13.86
2022-09-26T15:10:53.397Z,13.81
2022-09-26T15:13:28.311Z,13.50
2022-09-26T15:15:58.474Z,13.49
2022-09-26T15:18:27.923Z,13.55
2022-09-26T15:21:04.811Z,13.55
2022-09-26T15:23:34.176Z,13.53
2022-09-26T15:26:05.308Z,13.41
2022-09-26T15:28:34.744Z,13.33
2022-09-26T15:31:20.450Z,13.25
2022-09-26T15:33:49.859Z,13.42
2022-09-26T15:36:17.333Z,13.39
2022-09-26T15:38:47.452Z,13.21
2022-09-26T15:41:37.337Z,13.13
2022-09-26T15:44:07.726Z,13.26
2022-09-26T15:46:34.731Z,13.22
2022-09-26T15:49:01.564Z,12.83
2022-09-26T15:51:38.092Z,12.69
2022-09-26T15:54:11.276Z,12.63
2022-09-26T15:56:48.989Z,12.78
2022-09-26T15:59:40.723Z,12.53
2022-09-26T16:02:22.976Z,12.67
2022-09-26T16:04:52.207Z,12.60
2022-09-26T16:07:23.806Z,12.58
2022-09-26T16:09:51.538Z,12.44
2022-09-26T16:12:22.351Z,12.38
2022-09-26T16:15:13.475Z,12.29
2022-09-26T16:17:49.074Z,12.17
2022-09-26T16:20:16.095Z,12.21
2022-09-26T16:23:04.395Z,12.19
2022-09-26T16:25:52.912Z,12.09
2022-09-26T16:28:42.533Z,12.17
2022-09-26T16:31:17.798Z,11.91
2022-09-26T16:33:50.955Z,12.04
2022-09-26T16:36:27.322Z,11.97
2022-09-26T16:38:58.278Z,11.85
2022-09-26T16:42:02.416Z,11.85
2022-09-26T16:44:41.270Z,11.74
2022-09-26T16:47:35.145Z,11.76
2022-09-26T16:50:31.320Z,11.49
2022-09-26T16:52:58.212Z,11.52
2022-09-26T16:55:26.157Z,11.51
2022-09-26T16:57:58.397Z,11.41
2022-09-26T17:00:53.661Z,11.46
2022-09-26T17:03:25.877Z,11.46
2022-09-26T17:05:55.670Z,11.27
2022-09-26T17:08:23.462Z,11.31
2022-09-26T17:10:50.170Z,11.25
2022-09-26T17:13:25.249Z,11.36
2022-09-26T17:15:55.504Z,11.29
2022-09-26T17:18:29.178Z,11.26
2022-09-26T17:20:56.880Z,11.17
2022-09-26T17:23:39.267Z,11.17
2022-09-26T17:26:07.766Z,11.02
2022-09-26T17:28:40.060Z,10.99
2022-09-26T17:31:11.033Z,10.95
2022-09-26T17:33:42.042Z,10.87
2022-09-26T17:36:23.439Z,10.83
2022-09-26T17:38:50.435Z,10.83
2022-09-26T17:41:17.146Z,10.89
2022-09-26T17:43:44.660Z,10.83
2022-09-26T17:46:15.686Z,10.85
2022-09-26T17:48:43.816Z,10.74
2022-09-26T17:51:14.609Z,10.75
2022-09-26T17:53:50.847Z,10.74
2022-09-26T17:56:21.255Z,10.66
2022-09-26T17:58:49.568Z,10.64
2022-09-26T18:01:22.965Z,10.71
2022-09-26T18:03:53.641Z,10.65
2022-09-26T18:06:23.385Z,10.69
2022-09-26T18:08:50.169Z,10.57
2022-09-26T18:11:18.841Z,10.63
2022-09-26T18:13:52.662Z,10.58
2022-09-26T18:16:19.374Z,10.55
2022-09-26T18:18:47.257Z,10.60
2022-09-26T18:21:17.265Z,10.58
2022-09-26T18:23:49.048Z,10.60
2022-09-26T18:26:33.376Z,10.52
2022-09-26T18:29:07.548Z,10.57
2022-09-26T18:31:38.491Z,10.44
2022-09-26T18:34:12.039Z,10.47
2022-09-26T18:36:38.792Z,10.35
2022-09-26T18:39:05.461Z,10.41
2022-09-26T18:41:32.812Z,10.37
2022-09-26T18:44:02.160Z,10.27
2022-09-26T18:46:30.091Z,10.28
2022-09-26T18:48:58.512Z,10.33
2022-09-26T18:51:28.684Z,10.25
2022-09-26T18:53:55.360Z,10.27
2022-09-26T18:56:40.588Z,10.23
2022-09-26T18:59:10.072Z,10.27
2022-09-26T19:01:41.474Z,10.22
2022-09-26T19:04:21.516Z,10.21
2022-09-26T19:06:56.069Z,10.25
2022-09-26T19:09:22.968Z,10.25
2022-09-26T19:11:49.641Z,10.26
2022-09-26T19:14:20.169Z,10.24
2022-09-26T19:16:48.713Z,10.23
2022-09-26T19:19:16.035Z,10.25
2022-09-26T19:21:46.299Z,10.22
2022-09-26T19:24:34.425Z,10.22
2022-09-26T19:27:20.252Z,10.29
2022-09-26T19:29:52.897Z,10.31
2022-09-26T19:32:35.913Z,10.31
2022-09-26T19:35:25.952Z,10.35
2022-09-26T19:37:53.167Z,10.40
2022-09-26T19:40:21.455Z,10.35
2022-09-26T19:42:48.235Z,10.37
2022-09-26T19:45:15.616Z,10.35
2022-09-26T19:47:55.852Z,10.30
2022-09-26T19:50:25.737Z,10.37
2022-09-26T19:52:53.692Z,10.36
2022-09-26T19:55:26.501Z,10.35
2022-09-26T19:57:54.592Z,10.43
2022-09-26T20:00:21.755Z,10.40
2022-09-26T20:02:51.654Z,10.39
2022-09-26T20:05:26.379Z,10.43
2022-09-26T20:07:53.376Z,10.40
2022-09-26T20:10:25.263Z,10.47
2022-09-26T20:12:52.324Z,10.50
2022-09-26T20:15:22.455Z,10.44
2022-09-26T20:17:49.709Z,10.35
2022-09-26T20:20:19.995Z,10.24
2022-09-26T20:22:47.138Z,10.21
2022-09-26T20:25:16.797Z,10.22
2022-09-26T20:27:43.736Z,10.06
2022-09-26T20:30:34.276Z,9.90
2022-09-26T20:33:01.767Z,10.01
2022-09-26T20:35:34.467Z,9.83
2022-09-26T20:38:08.309Z,9.74
2022-09-26T20:40:35.856Z,9.63
2022-09-26T20:43:07.706Z,9.66
2022-09-26T20:45:40.829Z,9.55
2022-09-26T20:48:17.704Z,9.49
2022-09-26T20:50:44.451Z,9.40
2022-09-26T20:53:20.974Z,9.36
2022-09-26T20:55:48.176Z,9.41
2022-09-26T20:58:15.414Z,9.38
2022-09-26T21:00:43.827Z,9.34
2022-09-26T21:03:12.657Z,9.34
2022-09-26T21:05:39.853Z,9.30
2022-09-26T21:08:13.818Z,9.47
2022-09-26T21:10:40.455Z,9.48
2022-09-26T21:13:08.978Z,9.27
2022-09-26T21:15:36.817Z,9.30
2022-09-26T21:18:03.490Z,9.18
2022-09-26T21:20:33.438Z,9.17
2022-09-26T21:23:01.783Z,9.22
2022-09-26T21:25:31.588Z,9.24
2022-09-26T21:28:02.949Z,9.26
2022-09-26T21:30:30.608Z,9.36
2022-09-26T21:32:59.819Z,9.25
2022-09-26T21:35:29.783Z,9.23
2022-09-26T21:37:58.845Z,9.25
2022-09-26T21:40:29.097Z,9.19
2022-09-26T21:43:06.725Z,9.30
2022-09-26T21:45:33.739Z,9.28
2022-09-26T21:48:00.421Z,9.24
2022-09-26T21:50:28.784Z,9.16
2022-09-26T21:53:11.776Z,9.23
2022-09-26T21:55:43.214Z,9.19
2022-09-26T21:58:14.974Z,9.19
2022-09-26T22:00:41.626Z,9.04
2022-09-26T22:03:08.369Z,9.02
2022-09-26T22:05:35.033Z,9.00
2022-09-26T22:08:01.885Z,8.89
2022-09-26T22:10:29.272Z,8.83
2022-09-26T22:12:55.972Z,8.82
2022-09-26T22:15:22.648Z,8.71
2022-09-26T22:17:49.418Z,8.74
2022-09-26T22:20:16.176Z,8.78
2022-09-26T22:22:42.840Z,8.64
2022-09-26T22:25:09.878Z,8.62
2022-09-26T22:27:36.648Z,8.53
2022-09-26T22:30:04.726Z,8.62
2022-09-26T22:32:31.419Z,8.39
2022-09-26T22:34:58.112Z,8.34
2022-09-26T22:37:24.818Z,8.37
2022-09-26T22:39:51.746Z,8.34
2022-09-26T22:42:18.450Z,8.35
2022-09-26T22:44:45.094Z,8.31
2022-09-26T22:47:11.968Z,8.42
2022-09-26T22:49:38.778Z,8.40
2022-09-26T22:52:05.429Z,8.33
2022-09-26T22:54:32.041Z,8.38
2022-09-26T22:56:58.785Z,8.27
2022-09-26T22:59:25.485Z,8.32
2022-09-26T23:01:52.570Z,8.29
2022-09-26T23:04:19.366Z,8.29
2022-09-26T23:06:46.052Z,8.26
2022-09-26T23:09:12.806Z,8.24
2022-09-26T23:11:40.850Z,8.32
2022-09-26T23:14:07.619Z,8.22
2022-09-26T23:16:34.686Z,8.24
2022-09-26T23:19:01.446Z,8.28
2022-09-26T23:21:28.364Z,8.19
2022-09-26T23:23:58.237Z,8.18
2022-09-26T23:26:31.632Z,8.17
2022-09-26T23:28:58.908Z,8.25
2022-09-26T23:31:27.189Z,8.22
2022-09-26T23:33:54.615Z,8.17
2022-09-26T23:36:21.313Z,8.08
2022-09-26T23:38:48.253Z,8.05
2022-09-26T23:41:15.040Z,7.97
2022-09-26T23:43:42.259Z,7.98
2022-09-26T23:46:09.618Z,7.90
2022-09-26T23:48:37.150Z,7.94
2022-09-26T23:51:03.984Z,7.87
2022-09-26T23:53:32.635Z,7.91
2022-09-26T23:56:07.461Z,7.87
2022-09-26T23:58:34.420Z,7.91
